createdAt,value
2018-11-04T00:00:18.126Z,16.80
2018-11-04T00:01:18.102Z,16.10
2018-11-04T00:02:18.099Z,17.00
2018-11-04T00:03:18.081Z,16.50
2018-11-04T00:04:18.070Z,16.50
2018-11-04T00:05:18.071Z,16.20
2018-11-04T00:06:18.050Z,16.70
2018-11-04T00:07:18.038Z,16.10
2018-11-04T00:08:18.027Z,16.30
2018-11-04T00:09:18.017Z,16.80
2018-11-04T00:10:18.020Z,16.30
2018-11-04T00:11:17.995Z,15.90
2018-11-04T00:12:17.987Z,16.10
2018-11-04T00:13:18.124Z,15.40
2018-11-04T00:14:17.964Z,16.00
2018-11-04T00:15:17.966Z,16.30
2018-11-04T00:16:17.943Z,15.80
2018-11-04T00:17:17.935Z,16.20
2018-11-04T00:18:17.926Z,16.10
2018-11-04T00:19:17.912Z,15.20
2018-11-04T00:20:17.941Z,16.50
2018-11-04T00:21:17.902Z,14.90
2018-11-04T00:22:17.878Z,15.70
2018-11-04T00:23:17.867Z,16.10
2018-11-04T00:24:17.857Z,15.90
2018-11-04T00:25:17.856Z,15.40
2018-11-04T00:26:17.834Z,15.70
2018-11-04T00:27:17.873Z,14.60
2018-11-04T00:28:17.813Z,15.30
2018-11-04T00:29:17.803Z,14.30
2018-11-04T00:30:17.806Z,15.20
2018-11-04T00:31:17.796Z,14.50
2018-11-04T00:32:17.775Z,14.90
2018-11-04T00:33:17.760Z,15.20
2018-11-04T00:34:17.749Z,14.30
2018-11-04T00:35:17.750Z,13.50
2018-11-04T00:36:17.730Z,14.60
2018-11-04T00:37:17.717Z,14.70
2018-11-04T00:38:17.706Z,14.70
2018-11-04T00:39:17.696Z,12.90
2018-11-04T00:40:17.697Z,14.40
2018-11-04T00:41:17.686Z,13.90
2018-11-04T00:42:17.664Z,14.40
2018-11-04T00:43:17.653Z,14.30
2018-11-04T00:44:17.643Z,14.10
2018-11-04T00:45:17.717Z,14.40
2018-11-04T00:46:17.633Z,14.40
2018-11-04T00:47:17.616Z,13.10
2018-11-04T00:48:17.601Z,14.00
2018-11-04T00:49:17.589Z,13.90
2018-11-04T00:50:17.578Z,13.70
2018-11-04T00:51:17.589Z,14.10
2018-11-04T00:52:17.571Z,13.60
2018-11-04T00:53:17.552Z,12.80
2018-11-04T00:54:17.534Z,13.80
2018-11-04T00:55:17.524Z,13.50
2018-11-04T00:56:17.516Z,13.20
2018-11-04T00:57:17.525Z,12.90
2018-11-04T00:58:17.491Z,12.80
2018-11-04T00:59:17.482Z,12.40
2018-11-04T01:00:17.493Z,13.20
2018-11-04T01:01:17.459Z,13.30
2018-11-04T01:02:17.449Z,12.90
2018-11-04T01:03:17.454Z,13.00
2018-11-04T01:04:17.431Z,12.20
2018-11-04T01:05:17.421Z,12.60
2018-11-04T01:06:17.409Z,12.30
2018-11-04T01:07:17.409Z,12.50
2018-11-04T01:08:17.398Z,13.30
2018-11-04T01:09:17.475Z,13.40
2018-11-04T01:10:17.364Z,12.30
2018-11-04T01:11:17.356Z,12.80
2018-11-04T01:12:17.579Z,13.20
2018-11-04T01:13:17.352Z,13.10
2018-11-04T01:14:17.323Z,12.70
2018-11-04T01:15:17.310Z,12.20
2018-11-04T01:16:17.302Z,12.40
2018-11-04T01:17:17.292Z,12.70
2018-11-04T01:18:17.291Z,12.80
2018-11-04T01:19:17.270Z,12.30
2018-11-04T01:20:17.259Z,12.40
2018-11-04T01:21:17.247Z,13.00
2018-11-04T01:22:17.238Z,12.80
2018-11-04T01:23:17.238Z,12.90
2018-11-04T01:24:17.279Z,12.40
2018-11-04T01:25:17.211Z,12.60
2018-11-04T01:26:17.196Z,12.30
2018-11-04T01:27:17.182Z,13.10
2018-11-04T01:28:17.199Z,12.80
2018-11-04T01:29:17.201Z,12.40
2018-11-04T01:30:17.175Z,12.30
2018-11-04T01:31:17.145Z,12.40
2018-11-04T01:32:17.130Z,12.10
2018-11-04T01:33:17.128Z,12.40
2018-11-04T01:34:17.122Z,12.50
2018-11-04T01:35:17.113Z,12.70
2018-11-04T01:36:17.090Z,12.50
2018-11-04T01:37:17.078Z,12.20
2018-11-04T01:38:17.068Z,11.80
2018-11-04T01:39:17.068Z,12.10
2018-11-04T01:40:17.061Z,12.00
2018-11-04T01:41:17.037Z,12.00
2018-11-04T01:42:17.024Z,11.70
2018-11-04T01:43:17.016Z,12.30
2018-11-04T01:44:17.017Z,12.50
2018-11-04T01:45:16.992Z,12.40
2018-11-04T01:46:16.982Z,12.20
2018-11-04T01:47:16.974Z,11.90
2018-11-04T01:48:16.962Z,12.10
2018-11-04T01:49:16.966Z,11.60
2018-11-04T01:50:16.951Z,11.70
2018-11-04T01:51:16.930Z,12.00
2018-11-04T01:52:16.917Z,11.10
2018-11-04T01:53:16.908Z,12.10
2018-11-04T01:54:17.072Z,12.30
2018-11-04T01:55:16.885Z,12.10
2018-11-04T01:56:16.874Z,11.60
2018-11-04T01:57:16.864Z,11.80
2018-11-04T01:58:16.854Z,12.30
2018-11-04T01:59:16.855Z,11.20
2018-11-04T02:00:16.834Z,12.40
2018-11-04T02:01:16.824Z,11.60
2018-11-04T02:02:16.810Z,11.80
2018-11-04T02:03:16.805Z,11.80
2018-11-04T02:04:16.804Z,12.20
2018-11-04T02:05:16.795Z,12.10
2018-11-04T02:06:16.772Z,11.80
2018-11-04T02:07:16.760Z,12.20
2018-11-04T02:08:16.746Z,12.40
2018-11-04T02:09:16.738Z,12.30
2018-11-04T02:10:17.064Z,12.40
2018-11-04T02:11:16.716Z,12.30
2018-11-04T02:12:16.708Z,12.20
2018-11-04T02:13:16.698Z,10.90
2018-11-04T02:14:16.682Z,11.40
2018-11-04T02:15:16.686Z,12.00
2018-11-04T02:16:16.673Z,12.30
2018-11-04T02:17:16.650Z,11.30
2018-11-04T02:18:16.639Z,11.60
2018-11-04T02:19:16.628Z,12.40
2018-11-04T02:20:16.630Z,11.40
2018-11-04T02:21:16.606Z,11.40
2018-11-04T02:22:16.601Z,11.10
2018-11-04T02:23:16.586Z,11.60
2018-11-04T02:24:16.575Z,11.60
2018-11-04T02:25:16.592Z,11.40
2018-11-04T02:26:16.554Z,12.00
2018-11-04T02:27:16.546Z,11.80
2018-11-04T02:28:16.534Z,11.40
2018-11-04T02:29:16.523Z,12.10
2018-11-04T02:30:16.513Z,12.10
2018-11-04T02:31:16.514Z,11.60
2018-11-04T02:32:16.489Z,11.50
2018-11-04T02:33:16.481Z,11.40
2018-11-04T02:34:16.470Z,11.30
2018-11-04T02:35:16.459Z,11.80
2018-11-04T02:36:16.573Z,11.50
2018-11-04T02:37:16.436Z,12.20
2018-11-04T02:38:16.428Z,12.00
2018-11-04T02:39:16.415Z,11.20
2018-11-04T02:40:16.404Z,11.40
2018-11-04T02:41:16.395Z,12.10
2018-11-04T02:42:16.400Z,11.50
2018-11-04T02:43:16.375Z,12.40
2018-11-04T02:44:16.362Z,11.90
2018-11-04T02:45:16.351Z,11.40
2018-11-04T02:46:16.341Z,11.70
2018-11-04T02:47:16.352Z,11.20
2018-11-04T02:48:16.321Z,11.80
2018-11-04T02:49:16.309Z,12.10
2018-11-04T02:50:16.323Z,11.50
2018-11-04T02:51:16.289Z,11.70
2018-11-04T02:52:16.297Z,11.60
2018-11-04T02:53:16.264Z,11.70
2018-11-04T02:54:16.253Z,11.90
2018-11-04T02:55:16.244Z,11.90
2018-11-04T02:56:16.232Z,11.70
2018-11-04T02:57:16.222Z,12.00
2018-11-04T02:58:16.222Z,12.40
2018-11-04T02:59:16.202Z,12.10
2018-11-04T03:00:16.191Z,12.00
2018-11-04T03:01:16.182Z,11.50
2018-11-04T03:02:16.169Z,12.00
2018-11-04T03:03:16.561Z,11.90
2018-11-04T03:04:16.147Z,11.20
2018-11-04T03:05:16.137Z,12.20
2018-11-04T03:06:16.128Z,12.10
2018-11-04T03:07:16.116Z,11.30
2018-11-04T03:08:16.115Z,11.90
2018-11-04T03:09:16.096Z,11.70
2018-11-04T03:10:16.179Z,11.50
2018-11-04T03:11:16.072Z,11.90
2018-11-04T03:12:16.062Z,11.10
2018-11-04T03:13:16.068Z,11.90
2018-11-04T03:14:16.040Z,11.30
2018-11-04T03:15:16.030Z,11.60
2018-11-04T03:16:16.019Z,11.40
2018-11-04T03:17:16.008Z,12.00
2018-11-04T03:18:15.999Z,11.90
2018-11-04T03:19:16.000Z,11.60
2018-11-04T03:20:15.986Z,11.50
2018-11-04T03:21:15.966Z,10.70
2018-11-04T03:22:15.955Z,11.30
2018-11-04T03:23:15.955Z,11.00
2018-11-04T03:24:15.949Z,11.70
2018-11-04T03:25:15.923Z,10.80
2018-11-04T03:26:15.919Z,11.70
2018-11-04T03:27:15.901Z,11.90
2018-11-04T03:28:15.894Z,11.00
2018-11-04T03:29:15.891Z,11.40
2018-11-04T03:30:15.871Z,12.30
2018-11-04T03:31:15.859Z,11.90
2018-11-04T03:32:15.852Z,12.50
2018-11-04T03:33:15.836Z,12.10
2018-11-04T03:34:15.839Z,11.00
2018-11-04T03:35:15.816Z,11.20
2018-11-04T03:36:15.805Z,11.70
2018-11-04T03:37:15.796Z,11.70
2018-11-04T03:38:15.785Z,11.40
2018-11-04T03:39:15.784Z,11.40
2018-11-04T03:40:15.773Z,11.30
2018-11-04T03:41:15.756Z,10.90
2018-11-04T03:42:15.741Z,11.50
2018-11-04T03:43:15.729Z,11.50
2018-11-04T03:44:15.733Z,11.40
2018-11-04T03:45:15.721Z,11.30
2018-11-04T03:46:15.698Z,11.90
2018-11-04T03:47:15.688Z,11.60
2018-11-04T03:48:15.677Z,11.10
2018-11-04T03:49:15.691Z,11.30
2018-11-04T03:50:15.656Z,11.50
2018-11-04T03:51:15.645Z,12.20
2018-11-04T03:52:15.634Z,11.10
2018-11-04T03:53:15.623Z,11.80
2018-11-04T03:54:15.611Z,12.10
2018-11-04T03:55:15.614Z,11.40
2018-11-04T03:56:15.590Z,12.60
2018-11-04T03:57:15.580Z,12.40
2018-11-04T03:58:15.569Z,11.70
2018-11-04T03:59:15.559Z,12.20
2018-11-04T04:00:15.571Z,10.70
2018-11-04T04:01:15.541Z,11.20
2018-11-04T04:02:15.527Z,11.90
2018-11-04T04:03:15.518Z,11.90
2018-11-04T04:04:15.505Z,12.00
2018-11-04T04:05:15.495Z,12.50
2018-11-04T04:06:15.496Z,11.90
2018-11-04T04:07:15.473Z,11.90
2018-11-04T04:08:15.466Z,11.20
2018-11-04T04:09:15.452Z,11.00
2018-11-04T04:10:15.443Z,11.20
2018-11-04T04:11:15.444Z,11.30
2018-11-04T04:12:15.420Z,11.20
2018-11-04T04:13:15.419Z,12.10
2018-11-04T04:14:15.397Z,12.20
2018-11-04T04:15:15.388Z,11.90
2018-11-04T04:16:15.390Z,12.30
2018-11-04T04:17:15.368Z,11.40
2018-11-04T04:18:15.356Z,11.80
2018-11-04T04:19:15.345Z,11.30
2018-11-04T04:20:15.334Z,11.60
2018-11-04T04:21:15.337Z,12.10
2018-11-04T04:22:15.317Z,11.30
2018-11-04T04:23:15.301Z,11.20
2018-11-04T04:24:15.292Z,11.70
2018-11-04T04:25:15.285Z,11.80
2018-11-04T04:26:15.281Z,12.20
2018-11-04T04:27:15.260Z,11.30
2018-11-04T04:28:15.249Z,11.40
2018-11-04T04:29:15.238Z,11.80
2018-11-04T04:30:15.228Z,12.00
2018-11-04T04:31:15.229Z,10.80
2018-11-04T04:32:15.208Z,11.70
2018-11-04T04:33:15.195Z,11.10
2018-11-04T04:34:15.184Z,10.80
2018-11-04T04:35:15.173Z,11.70
2018-11-04T04:36:15.173Z,11.70
2018-11-04T04:37:15.164Z,11.70
2018-11-04T04:38:15.140Z,10.90
2018-11-04T04:39:15.130Z,11.80
2018-11-04T04:40:15.120Z,11.70
2018-11-04T04:41:15.109Z,11.40
2018-11-04T04:42:15.111Z,11.80
2018-11-04T04:43:15.087Z,11.00
2018-11-04T04:44:15.076Z,11.50
2018-11-04T04:45:15.068Z,12.10
2018-11-04T04:46:15.055Z,11.70
2018-11-04T04:47:15.058Z,11.70
2018-11-04T04:48:15.036Z,12.20
2018-11-04T04:49:15.024Z,11.60
2018-11-04T04:50:15.013Z,11.90
2018-11-04T04:51:15.002Z,11.90
2018-11-04T04:52:15.002Z,12.70
2018-11-04T04:53:15.010Z,11.90
2018-11-04T04:54:14.970Z,11.40
2018-11-04T04:55:14.957Z,11.90
2018-11-04T04:56:14.949Z,11.60
2018-11-04T04:57:14.961Z,11.10
2018-11-04T04:58:14.927Z,11.10
2018-11-04T04:59:14.919Z,11.40
2018-11-04T05:00:14.950Z,11.60
2018-11-04T05:01:14.898Z,11.60
2018-11-04T05:02:14.887Z,12.10
2018-11-04T05:03:14.885Z,11.60
2018-11-04T05:04:14.861Z,12.10
2018-11-04T05:05:14.853Z,12.00
2018-11-04T05:06:14.843Z,12.20
2018-11-04T05:07:14.831Z,11.70
2018-11-04T05:08:14.834Z,11.80
2018-11-04T05:09:14.808Z,12.10
2018-11-04T05:10:14.799Z,12.70
2018-11-04T05:11:14.789Z,12.50
2018-11-04T05:12:14.778Z,12.80
2018-11-04T05:13:14.777Z,13.90
2018-11-04T05:14:14.759Z,13.50
2018-11-04T05:15:14.745Z,13.20
2018-11-04T05:16:14.738Z,12.90
2018-11-04T05:17:14.724Z,13.10
2018-11-04T05:18:14.725Z,12.50
2018-11-04T05:19:14.712Z,13.00
2018-11-04T05:20:14.693Z,12.70
2018-11-04T05:21:14.680Z,12.70
2018-11-04T05:22:14.672Z,13.50
2018-11-04T05:23:14.658Z,12.60
2018-11-04T05:24:14.660Z,12.50
2018-11-04T05:25:14.637Z,12.60
2018-11-04T05:26:14.629Z,12.80
2018-11-04T05:27:14.617Z,12.80
2018-11-04T05:28:14.607Z,13.20
2018-11-04T05:29:15.048Z,12.20
2018-11-04T05:30:14.585Z,12.70
2018-11-04T05:31:14.575Z,12.80
2018-11-04T05:32:14.562Z,13.00
2018-11-04T05:33:14.553Z,12.60
2018-11-04T05:34:14.552Z,12.30
2018-11-04T05:35:14.530Z,13.40
2018-11-04T05:36:14.523Z,12.80
2018-11-04T05:37:14.509Z,13.00
2018-11-04T05:38:14.503Z,12.80
2018-11-04T05:39:14.546Z,12.50
2018-11-04T05:40:14.476Z,12.30
2018-11-04T05:41:14.470Z,12.40
2018-11-04T05:42:14.454Z,12.90
2018-11-04T05:43:14.444Z,13.90
2018-11-04T05:44:14.445Z,13.10
2018-11-04T05:45:14.435Z,13.20
2018-11-04T05:46:14.414Z,13.00
2018-11-04T05:47:14.401Z,13.40
2018-11-04T05:48:14.391Z,13.50
2018-11-04T05:49:14.408Z,13.60
2018-11-04T05:50:14.369Z,14.30
2018-11-04T05:51:14.367Z,13.80
2018-11-04T05:52:14.348Z,13.50
2018-11-04T05:53:14.342Z,14.30
2018-11-04T05:54:14.327Z,14.70
2018-11-04T05:55:14.341Z,13.40
2018-11-04T05:56:14.305Z,14.60
2018-11-04T05:57:14.300Z,13.70
2018-11-04T05:58:14.283Z,14.60
2018-11-04T05:59:14.275Z,14.70
2018-11-04T06:00:14.263Z,14.80
2018-11-04T06:01:14.264Z,14.70
2018-11-04T06:02:14.240Z,14.20
2018-11-04T06:03:14.233Z,13.90
2018-11-04T06:04:14.230Z,13.90
2018-11-04T06:05:14.210Z,14.00
2018-11-04T06:06:14.198Z,13.70
2018-11-04T06:07:14.186Z,14.40
2018-11-04T06:08:14.176Z,14.50
2018-11-04T06:09:14.176Z,14.40
2018-11-04T06:10:14.155Z,15.30
2018-11-04T06:11:14.157Z,15.40
2018-11-04T06:12:14.149Z,14.70
2018-11-04T06:13:14.132Z,14.50
2018-11-04T06:14:14.113Z,14.60
2018-11-04T06:15:14.122Z,14.40
2018-11-04T06:16:14.091Z,14.60
2018-11-04T06:17:14.104Z,14.70
2018-11-04T06:18:14.075Z,14.70
2018-11-04T06:19:14.071Z,14.70
2018-11-04T06:20:14.051Z,15.10
2018-11-04T06:21:14.050Z,15.90
2018-11-04T06:22:14.028Z,14.60
2018-11-04T06:23:14.018Z,15.60
2018-11-04T06:24:14.010Z,15.20
2018-11-04T06:25:13.995Z,15.00
2018-11-04T06:26:13.999Z,15.00
2018-11-04T06:27:13.978Z,14.50
2018-11-04T06:28:13.965Z,14.20
2018-11-04T06:29:13.959Z,14.10
2018-11-04T06:30:13.942Z,14.90
2018-11-04T06:31:13.958Z,14.10
2018-11-04T06:32:13.920Z,14.40
2018-11-04T06:33:13.910Z,15.30
2018-11-04T06:34:13.900Z,14.60
2018-11-04T06:35:13.887Z,14.40
2018-11-04T06:36:14.045Z,14.00
2018-11-04T06:37:13.880Z,14.60
2018-11-04T06:38:13.861Z,14.10
2018-11-04T06:39:13.846Z,15.10
2018-11-04T06:40:13.834Z,14.40
2018-11-04T06:41:14.024Z,13.70
2018-11-04T06:42:13.819Z,13.90
2018-11-04T06:43:13.815Z,14.10
2018-11-04T06:44:13.793Z,14.30
2018-11-04T06:45:13.781Z,14.30
2018-11-04T06:46:13.771Z,14.30
2018-11-04T06:47:13.876Z,14.80
2018-11-04T06:48:13.780Z,13.70
2018-11-04T06:49:13.740Z,14.60
2018-11-04T06:50:13.737Z,14.20
2018-11-04T06:51:13.717Z,13.40
2018-11-04T06:52:13.706Z,15.50
2018-11-04T06:53:13.697Z,14.00
2018-11-04T06:54:13.705Z,13.60
2018-11-04T06:55:13.677Z,14.50
2018-11-04T06:56:13.664Z,14.30
2018-11-04T06:57:13.654Z,15.10
2018-11-04T06:58:13.672Z,14.20
2018-11-04T06:59:13.632Z,14.30
2018-11-04T07:00:13.621Z,14.60
2018-11-04T07:01:13.612Z,15.30
2018-11-04T07:02:13.600Z,13.70
2018-11-04T07:03:13.591Z,15.00
2018-11-04T07:04:13.591Z,14.00
2018-11-04T07:05:13.568Z,14.20
2018-11-04T07:06:13.558Z,15.30
2018-11-04T07:07:13.547Z,14.20
2018-11-04T07:08:13.546Z,14.30
2018-11-04T07:09:13.543Z,13.60
2018-11-04T07:10:13.519Z,13.80
2018-11-04T07:11:13.505Z,14.20
2018-11-04T07:12:13.493Z,14.30
2018-11-04T07:13:13.486Z,14.60
2018-11-04T07:14:13.492Z,14.40
2018-11-04T07:15:13.476Z,14.10
2018-11-04T07:16:13.452Z,14.30
2018-11-04T07:17:13.441Z,15.70
2018-11-04T07:18:13.432Z,14.10
2018-11-04T07:19:13.419Z,14.20
2018-11-04T07:20:13.420Z,15.00
2018-11-04T07:21:13.400Z,14.90
2018-11-04T07:22:13.387Z,14.20
2018-11-04T07:23:13.377Z,14.80
2018-11-04T07:24:13.367Z,14.30
2018-11-04T07:25:13.368Z,15.70
2018-11-04T07:26:13.346Z,15.40
2018-11-04T07:27:13.333Z,15.90
2018-11-04T07:28:13.324Z,15.10
2018-11-04T07:29:13.325Z,15.30
2018-11-04T07:30:13.313Z,15.70
2018-11-04T07:31:13.293Z,15.50
2018-11-04T07:32:13.394Z,16.60
2018-11-04T07:33:13.272Z,15.60
2018-11-04T07:34:13.261Z,16.70
2018-11-04T07:35:13.261Z,15.90
2018-11-04T07:36:13.239Z,15.60
2018-11-04T07:37:13.235Z,16.00
2018-11-04T07:38:13.219Z,15.50
2018-11-04T07:39:13.210Z,15.30
2018-11-04T07:40:13.538Z,16.00
2018-11-04T07:41:13.186Z,15.80
2018-11-04T07:42:13.176Z,15.10
2018-11-04T07:43:13.167Z,17.30
2018-11-04T07:44:13.232Z,15.90
2018-11-04T07:45:13.163Z,16.40
2018-11-04T07:46:13.132Z,16.10
2018-11-04T07:47:13.123Z,15.90
2018-11-04T07:48:13.112Z,16.60
2018-11-04T07:49:13.101Z,16.10
2018-11-04T07:50:13.094Z,18.10
2018-11-04T07:51:13.092Z,16.80
2018-11-04T07:52:13.068Z,16.80
2018-11-04T07:53:13.061Z,17.80
2018-11-04T07:54:13.046Z,17.30
2018-11-04T07:55:13.036Z,17.40
2018-11-04T07:56:13.038Z,15.70
2018-11-04T07:57:13.017Z,17.20
2018-11-04T07:58:13.003Z,17.00
2018-11-04T07:59:12.995Z,17.40
2018-11-04T08:00:13.155Z,16.90
2018-11-04T08:01:12.995Z,16.80
2018-11-04T08:02:12.960Z,17.40
2018-11-04T08:03:12.952Z,16.40
2018-11-04T08:04:13.028Z,17.00
2018-11-04T08:05:12.929Z,16.30
2018-11-04T08:06:12.917Z,16.20
2018-11-04T08:07:12.920Z,16.60
2018-11-04T08:08:12.897Z,16.60
2018-11-04T08:09:12.889Z,17.20
2018-11-04T08:10:12.877Z,16.50
2018-11-04T08:11:12.865Z,17.50
2018-11-04T08:12:12.869Z,16.90
2018-11-04T08:13:12.842Z,17.90
2018-11-04T08:14:12.838Z,16.90
2018-11-04T08:15:12.825Z,16.90
2018-11-04T08:16:12.825Z,17.60
2018-11-04T08:17:12.814Z,17.20
2018-11-04T08:18:12.791Z,18.40
2018-11-04T08:19:12.779Z,17.50
2018-11-04T08:20:12.769Z,16.10
2018-11-04T08:21:12.821Z,17.20
2018-11-04T08:22:12.758Z,17.00
2018-11-04T08:23:12.739Z,18.30
2018-11-04T08:24:12.727Z,17.90
2018-11-04T08:25:12.715Z,18.40
2018-11-04T08:26:12.705Z,17.40
2018-11-04T08:27:12.718Z,17.70
2018-11-04T08:28:12.685Z,17.60
2018-11-04T08:29:12.673Z,17.40
2018-11-04T08:30:12.664Z,18.40
2018-11-04T08:31:12.652Z,17.90
2018-11-04T08:32:12.662Z,17.50
2018-11-04T08:33:12.633Z,16.50
2018-11-04T08:34:12.619Z,17.00
2018-11-04T08:35:12.606Z,17.10
2018-11-04T08:36:12.599Z,17.40
2018-11-04T08:37:12.592Z,16.30
2018-11-04T08:38:12.588Z,16.70
2018-11-04T08:39:12.565Z,17.40
2018-11-04T08:40:12.647Z,18.30
2018-11-04T08:41:12.545Z,18.10
2018-11-04T08:42:12.535Z,17.30
2018-11-04T08:43:12.536Z,17.50
2018-11-04T08:44:12.513Z,18.30
2018-11-04T08:45:12.504Z,18.60
2018-11-04T08:46:12.490Z,18.30
2018-11-04T08:47:12.479Z,18.40
2018-11-04T08:48:12.482Z,19.60
2018-11-04T08:49:12.461Z,18.10
2018-11-04T08:50:12.448Z,18.10
2018-11-04T08:51:12.437Z,18.10
2018-11-04T08:52:12.427Z,18.30
2018-11-04T08:53:12.429Z,19.40
2018-11-04T08:54:12.405Z,18.90
2018-11-04T08:55:12.394Z,19.70
2018-11-04T08:56:12.384Z,19.50
2018-11-04T08:57:12.373Z,18.20
2018-11-04T08:58:12.374Z,19.40
2018-11-04T08:59:12.533Z,19.70
2018-11-04T09:00:12.450Z,19.80
2018-11-04T09:01:12.332Z,20.50
2018-11-04T09:02:12.322Z,19.50
2018-11-04T09:03:12.309Z,19.60
2018-11-04T09:04:12.308Z,20.00
2018-11-04T09:05:12.290Z,20.50
2018-11-04T09:06:12.274Z,19.30
2018-11-04T09:07:12.264Z,20.20
2018-11-04T09:08:12.259Z,20.50
2018-11-04T09:09:12.264Z,20.10
2018-11-04T09:10:12.234Z,19.30
2018-11-04T09:11:12.221Z,20.50
2018-11-04T09:12:12.212Z,21.00
2018-11-04T09:13:12.205Z,20.30
2018-11-04T09:14:12.259Z,20.70
2018-11-04T09:15:12.179Z,21.00
2018-11-04T09:16:12.170Z,21.30
2018-11-04T09:17:12.161Z,22.10
2018-11-04T09:18:12.153Z,21.70
2018-11-04T09:19:12.148Z,21.60
2018-11-04T09:20:12.125Z,21.90
2018-11-04T09:21:12.128Z,22.30
2018-11-04T09:22:12.190Z,21.40
2018-11-04T09:23:12.093Z,21.40
2018-11-04T09:24:12.102Z,22.70
2018-11-04T09:25:12.072Z,23.20
2018-11-04T09:26:12.065Z,22.10
2018-11-04T09:27:12.051Z,21.70
2018-11-04T09:28:12.038Z,22.20
2018-11-04T09:29:12.122Z,22.50
2018-11-04T09:30:12.018Z,21.90
2018-11-04T09:31:12.007Z,22.50
2018-11-04T09:32:11.997Z,23.00
2018-11-04T09:33:11.988Z,22.60
2018-11-04T09:34:11.977Z,23.10
2018-11-04T09:35:12.067Z,23.00
2018-11-04T09:36:12.123Z,23.10
2018-11-04T09:37:11.952Z,23.40
2018-11-04T09:38:11.941Z,22.20
2018-11-04T09:39:11.935Z,25.30
2018-11-04T09:40:11.924Z,23.10
2018-11-04T09:41:11.913Z,23.80
2018-11-04T09:42:11.890Z,23.20
2018-11-04T09:43:11.880Z,23.10
2018-11-04T09:44:11.871Z,24.00
2018-11-04T09:45:11.873Z,23.10
2018-11-04T09:46:11.845Z,22.70
2018-11-04T09:47:11.835Z,22.60
2018-11-04T09:48:11.834Z,22.50
2018-11-04T09:49:11.814Z,23.20
2018-11-04T09:50:11.829Z,22.40
2018-11-04T09:51:11.794Z,23.30
2018-11-04T09:52:11.800Z,23.80
2018-11-04T09:53:11.771Z,23.60
2018-11-04T09:54:11.766Z,23.80
2018-11-04T09:55:11.751Z,24.50
2018-11-04T09:56:11.748Z,23.80
2018-11-04T09:57:11.726Z,23.40
2018-11-04T09:58:11.722Z,23.90
2018-11-04T09:59:11.707Z,24.40
2018-11-04T10:00:11.698Z,23.50
2018-11-04T10:01:11.705Z,23.80
2018-11-04T10:02:11.687Z,24.20
2018-11-04T10:03:11.665Z,22.90
2018-11-04T10:04:11.656Z,23.50
2018-11-04T10:05:11.645Z,23.70
2018-11-04T10:06:11.645Z,24.30
2018-11-04T10:07:11.727Z,24.40
2018-11-04T10:08:11.615Z,23.50
2018-11-04T10:09:11.602Z,23.70
2018-11-04T10:10:11.590Z,24.40
2018-11-04T10:11:11.590Z,24.10
2018-11-04T10:12:11.584Z,23.60
2018-11-04T10:13:11.598Z,23.10
2018-11-04T10:14:11.547Z,23.40
2018-11-04T10:15:11.539Z,24.60
2018-11-04T10:16:11.556Z,23.10
2018-11-04T10:17:11.531Z,23.40
2018-11-04T10:18:11.520Z,23.90
2018-11-04T10:19:11.707Z,23.50
2018-11-04T10:20:11.625Z,24.40
2018-11-04T10:21:11.854Z,23.00
2018-11-04T10:22:11.461Z,24.00
2018-11-04T10:23:11.467Z,23.50
2018-11-04T10:24:11.443Z,22.60
2018-11-04T10:25:11.432Z,24.00
2018-11-04T10:26:11.420Z,23.60
2018-11-04T10:27:11.408Z,24.30
2018-11-04T10:28:11.420Z,24.10
2018-11-04T10:29:11.385Z,23.10
2018-11-04T10:30:11.411Z,23.00
2018-11-04T10:31:11.369Z,25.40
2018-11-04T10:32:11.357Z,23.40
2018-11-04T10:33:11.357Z,24.10
2018-11-04T10:34:11.333Z,23.80
2018-11-04T10:35:11.324Z,24.20
2018-11-04T10:36:11.346Z,22.70
2018-11-04T10:37:11.392Z,24.40
2018-11-04T10:38:11.304Z,24.80
2018-11-04T10:39:11.282Z,24.80
2018-11-04T10:40:11.270Z,24.20
2018-11-04T10:41:11.268Z,24.80
2018-11-04T10:42:11.272Z,23.80
2018-11-04T10:43:11.277Z,24.00
2018-11-04T10:44:11.226Z,25.10
2018-11-04T10:45:11.253Z,25.00
2018-11-04T10:46:11.206Z,24.20
2018-11-04T10:47:11.198Z,24.90
2018-11-04T10:48:11.187Z,24.80
2018-11-04T10:49:11.234Z,24.30
2018-11-04T10:50:11.199Z,25.30
2018-11-04T10:51:11.154Z,24.90
2018-11-04T10:52:11.170Z,25.20
2018-11-04T10:53:11.132Z,26.50
2018-11-04T10:54:11.135Z,25.50
2018-11-04T10:55:11.116Z,25.50
2018-11-04T10:56:11.100Z,26.10
2018-11-04T10:57:11.094Z,26.80
2018-11-04T10:58:11.078Z,26.00
2018-11-04T10:59:11.082Z,25.30
2018-11-04T11:00:11.058Z,26.00
2018-11-04T11:01:11.047Z,25.10
2018-11-04T11:02:11.040Z,26.00
2018-11-04T11:03:11.027Z,24.70
2018-11-04T11:04:11.032Z,25.00
2018-11-04T11:05:11.029Z,27.00
2018-11-04T11:06:10.996Z,26.40
2018-11-04T11:07:10.982Z,25.80
2018-11-04T11:08:10.973Z,27.20
2018-11-04T11:09:10.962Z,28.40
2018-11-04T11:10:10.950Z,27.10
2018-11-04T11:11:11.036Z,26.90
2018-11-04T11:12:10.933Z,26.30
2018-11-04T11:13:10.919Z,27.50
2018-11-04T11:14:10.917Z,29.20
2018-11-04T11:15:10.911Z,27.80
2018-11-04T11:16:10.888Z,27.00
2018-11-04T11:17:10.879Z,27.50
2018-11-04T11:18:10.864Z,28.20
2018-11-04T11:19:10.856Z,27.40
2018-11-04T11:20:10.856Z,28.10
2018-11-04T11:21:10.844Z,28.20
2018-11-04T11:22:10.829Z,28.20
2018-11-04T11:23:10.855Z,27.20
2018-11-04T11:24:10.802Z,26.90
2018-11-04T11:25:10.793Z,26.70
2018-11-04T11:26:10.792Z,27.00
2018-11-04T11:27:10.769Z,28.10
2018-11-04T11:28:10.761Z,26.60
2018-11-04T11:29:10.747Z,26.30
2018-11-04T11:30:10.793Z,26.30
2018-11-04T11:31:11.029Z,26.90
2018-11-04T11:32:10.730Z,28.20
2018-11-04T11:33:10.707Z,26.70
2018-11-04T11:34:10.693Z,27.20
2018-11-04T11:35:10.683Z,27.90
2018-11-04T11:36:10.694Z,28.70
2018-11-04T11:37:10.678Z,27.70
2018-11-04T11:38:10.657Z,26.50
2018-11-04T11:39:10.646Z,27.10
2018-11-04T11:40:10.633Z,27.90
2018-11-04T11:41:10.620Z,27.80
2018-11-04T11:42:10.622Z,27.20
2018-11-04T11:43:10.597Z,28.50
2018-11-04T11:44:10.586Z,27.30
2018-11-04T11:45:10.575Z,27.20
2018-11-04T11:46:10.564Z,26.70
2018-11-04T11:47:10.578Z,27.10
2018-11-04T11:48:10.544Z,26.00
2018-11-04T11:49:10.533Z,27.60
2018-11-04T11:50:10.524Z,26.30
2018-11-04T11:51:10.512Z,27.90
2018-11-04T11:52:10.511Z,28.00
2018-11-04T11:53:10.490Z,27.20
2018-11-04T11:54:10.478Z,26.20
2018-11-04T11:55:10.468Z,27.90
2018-11-04T11:56:10.460Z,26.70
2018-11-04T11:57:10.478Z,28.60
2018-11-04T11:58:10.437Z,26.10
2018-11-04T11:59:10.443Z,27.30
2018-11-04T12:00:10.413Z,27.60
2018-11-04T12:01:10.405Z,28.20
2018-11-04T12:02:10.475Z,27.90
2018-11-04T12:03:10.387Z,28.20
2018-11-04T12:04:10.373Z,26.70
2018-11-04T12:05:10.363Z,27.20
2018-11-04T12:06:10.350Z,27.40
2018-11-04T12:07:10.339Z,26.80
2018-11-04T12:08:10.525Z,25.80
2018-11-04T12:09:10.316Z,26.60
2018-11-04T12:10:10.309Z,26.30
2018-11-04T12:11:10.297Z,28.40
2018-11-04T12:12:10.283Z,28.50
2018-11-04T12:13:10.299Z,27.50
2018-11-04T12:14:10.265Z,27.10
2018-11-04T12:15:10.254Z,27.30
2018-11-04T12:16:10.243Z,26.60
2018-11-04T12:17:10.230Z,28.20
2018-11-04T12:18:10.228Z,27.90
2018-11-04T12:19:10.222Z,27.20
2018-11-04T12:20:10.198Z,27.90
2018-11-04T12:21:10.190Z,27.80
2018-11-04T12:22:10.180Z,28.60
2018-11-04T12:23:10.164Z,27.40
2018-11-04T12:24:10.168Z,28.30
2018-11-04T12:25:10.144Z,27.20
2018-11-04T12:26:10.140Z,28.40
2018-11-04T12:27:10.124Z,27.90
2018-11-04T12:28:10.113Z,28.20
2018-11-04T12:29:10.116Z,28.30
2018-11-04T12:30:10.092Z,29.00
2018-11-04T12:31:10.087Z,27.80
2018-11-04T12:32:10.081Z,27.30
2018-11-04T12:33:10.062Z,28.50
2018-11-04T12:34:10.061Z,27.90
2018-11-04T12:35:10.106Z,28.40
2018-11-04T12:36:10.027Z,27.50
2018-11-04T12:37:10.021Z,26.90
2018-11-04T12:38:10.014Z,26.50
2018-11-04T12:39:10.013Z,27.90
2018-11-04T12:40:09.987Z,27.80
2018-11-04T12:41:09.981Z,25.60
2018-11-04T12:42:09.964Z,26.80
2018-11-04T12:43:09.961Z,27.90
2018-11-04T12:44:09.956Z,27.70
2018-11-04T12:45:09.939Z,28.10
2018-11-04T12:46:09.934Z,27.40
2018-11-04T12:47:09.911Z,26.20
2018-11-04T12:48:09.903Z,27.60
2018-11-04T12:49:09.909Z,27.60
2018-11-04T12:50:09.895Z,26.40
2018-11-04T12:51:09.869Z,25.30
2018-11-04T12:52:09.917Z,27.90